createdAt,value
2019-06-10T00:02:50.805Z,14.83
2019-06-10T00:07:56.218Z,16.82
2019-06-10T00:13:07.318Z,16.37
2019-06-10T00:18:34.039Z,14.38
2019-06-10T00:23:21.228Z,14.65
2019-06-10T00:28:27.921Z,14.73
2019-06-10T00:33:33.091Z,14.70
2019-06-10T00:38:41.037Z,15.85
2019-06-10T00:43:45.277Z,14.98
2019-06-10T00:48:52.335Z,16.15
2019-06-10T00:53:57.387Z,14.50
2019-06-10T00:59:04.098Z,15.32
2019-06-10T01:04:12.415Z,15.00
2019-06-10T01:09:16.137Z,15.25
2019-06-10T01:14:21.714Z,16.12
2019-06-10T01:19:26.887Z,15.28
2019-06-10T01:24:31.977Z,14.78
2019-06-10T01:29:37.065Z,15.85
2019-06-10T01:34:42.109Z,17.82
2019-06-10T01:39:47.323Z,15.78
2019-06-10T01:44:52.451Z,14.75
2019-06-10T01:49:57.573Z,16.73
2019-06-10T01:55:02.690Z,20.62
2019-06-10T02:00:11.942Z,16.35
2019-06-10T02:05:16.669Z,13.98
2019-06-10T02:10:23.126Z,17.80
2019-06-10T02:15:28.392Z,17.17
2019-06-10T02:20:33.659Z,15.40
2019-06-10T02:25:41.065Z,18.15
2019-06-10T02:30:51.876Z,19.77
2019-06-10T02:35:53.866Z,19.25
2019-06-10T02:40:59.291Z,21.25
2019-06-10T02:46:04.930Z,19.32
2019-06-10T02:51:13.083Z,22.77
2019-06-10T02:56:17.775Z,19.27
2019-06-10T03:01:31.882Z,20.10
2019-06-10T03:06:36.257Z,20.23
2019-06-10T03:11:37.787Z,19.37
2019-06-10T03:16:49.691Z,20.30
2019-06-10T03:21:54.773Z,19.12
2019-06-10T03:26:59.874Z,18.55
2019-06-10T03:32:05.733Z,18.80
2019-06-10T03:37:12.906Z,19.77
2019-06-10T03:42:18.775Z,22.35
2019-06-10T03:47:25.904Z,26.45
2019-06-10T03:52:32.449Z,24.00
2019-06-10T03:57:37.720Z,21.35
2019-06-10T04:02:43.216Z,15.83
2019-06-10T04:07:48.240Z,20.17
2019-06-10T04:12:53.316Z,19.00
2019-06-10T04:17:58.414Z,19.62
2019-06-10T04:23:04.330Z,20.95
2019-06-10T04:28:09.522Z,20.52
2019-06-10T04:33:14.596Z,24.45
2019-06-10T04:38:20.956Z,22.67
2019-06-10T04:43:27.730Z,23.10
2019-06-10T04:48:34.058Z,18.05
2019-06-10T04:53:40.474Z,18.85
2019-06-10T04:58:46.031Z,17.92
2019-06-10T05:03:52.661Z,15.72
2019-06-10T05:08:57.849Z,19.90
2019-06-10T05:14:03.030Z,17.05
2019-06-10T05:19:09.242Z,18.35
2019-06-10T05:24:14.343Z,16.48
2019-06-10T05:29:20.267Z,16.17
2019-06-10T05:34:27.196Z,19.77
2019-06-10T05:39:35.131Z,18.73
2019-06-10T05:44:40.087Z,19.05
2019-06-10T05:49:45.177Z,19.12
2019-06-10T05:54:52.132Z,18.87
2019-06-10T05:59:57.763Z,19.37
2019-06-10T06:05:02.888Z,19.85
2019-06-10T06:10:08.601Z,21.82
2019-06-10T06:15:13.832Z,22.98
2019-06-10T06:20:19.230Z,24.45
2019-06-10T06:25:24.339Z,22.70
2019-06-10T06:30:30.182Z,25.05
2019-06-10T06:35:40.898Z,21.82
2019-06-10T06:40:43.606Z,22.20
2019-06-10T06:45:48.742Z,18.67
2019-06-10T06:51:04.586Z,19.60
2019-06-10T06:56:03.453Z,19.42
2019-06-10T07:01:10.955Z,19.77
2019-06-10T07:06:15.580Z,20.08
2019-06-10T07:11:22.404Z,24.75
2019-06-10T07:16:27.738Z,18.40
2019-06-10T07:21:36.188Z,17.62
2019-06-10T07:26:45.330Z,19.12
2019-06-10T07:31:50.119Z,18.67
2019-06-10T07:36:55.427Z,19.92
2019-06-10T07:42:03.026Z,23.30
2019-06-10T07:47:09.094Z,19.95
2019-06-10T07:52:19.407Z,22.85
2019-06-10T07:57:22.628Z,19.67
2019-06-10T08:02:27.866Z,14.87
2019-06-10T08:07:33.877Z,14.35
2019-06-10T08:12:41.829Z,13.28
2019-06-10T08:17:48.250Z,15.60
2019-06-10T08:22:57.858Z,20.65
2019-06-10T08:28:02.974Z,22.37
2019-06-10T08:33:09.580Z,18.30
2019-06-10T08:38:14.654Z,19.23
2019-06-10T08:43:22.444Z,16.82
2019-06-10T08:48:27.239Z,16.02
2019-06-10T08:53:32.953Z,15.23
2019-06-10T08:58:40.311Z,16.93
2019-06-10T09:03:49.007Z,15.78
2019-06-10T09:08:54.543Z,18.75
2019-06-10T09:14:02.385Z,18.25
2019-06-10T09:19:07.898Z,16.07
2019-06-10T09:24:13.065Z,22.62
2019-06-10T09:29:18.333Z,15.65
2019-06-10T09:34:23.909Z,19.00
2019-06-10T09:39:29.201Z,18.40
2019-06-10T09:44:34.287Z,20.08
2019-06-10T09:49:42.382Z,19.57
2019-06-10T09:54:50.840Z,15.65
2019-06-10T09:59:56.580Z,18.55
2019-06-10T10:05:08.788Z,20.45
2019-06-10T10:10:15.585Z,17.65
2019-06-10T10:15:29.887Z,20.23
2019-06-10T10:20:28.468Z,21.80
2019-06-10T10:25:33.635Z,19.05
2019-06-10T10:30:42.498Z,19.25
2019-06-10T10:35:48.037Z,19.27
2019-06-10T10:40:58.582Z,17.00
2019-06-10T10:46:06.353Z,17.32
2019-06-10T10:51:13.342Z,19.17
2019-06-10T10:56:18.786Z,16.23
2019-06-10T11:01:24.214Z,19.12
2019-06-10T11:06:29.386Z,17.82
2019-06-10T11:11:34.596Z,17.80
2019-06-10T11:16:39.800Z,17.25
2019-06-10T11:21:45.315Z,17.82
2019-06-10T11:26:53.257Z,21.17
2019-06-10T11:31:58.663Z,23.80
2019-06-10T11:37:04.331Z,19.20
2019-06-10T11:42:13.290Z,18.67
2019-06-10T11:47:18.527Z,17.32
2019-06-10T11:52:25.068Z,17.12
2019-06-10T11:57:32.943Z,19.23
2019-06-10T12:02:37.963Z,17.35
2019-06-10T12:07:43.614Z,18.62
2019-06-10T12:12:48.965Z,20.20
2019-06-10T12:18:00.815Z,18.40
2019-06-10T12:23:04.403Z,17.50
2019-06-10T12:28:08.328Z,17.17
2019-06-10T12:33:21.262Z,18.10
2019-06-10T12:38:22.752Z,20.75
2019-06-10T12:43:27.382Z,18.37
2019-06-10T12:48:34.355Z,17.73
2019-06-10T12:53:39.717Z,16.80
2019-06-10T12:58:44.992Z,24.07
2019-06-10T13:03:52.853Z,19.85
2019-06-10T13:08:58.061Z,21.12
2019-06-10T13:14:06.484Z,21.48
2019-06-10T13:19:12.380Z,21.52
2019-06-10T13:24:17.000Z,22.67
2019-06-10T13:34:27.905Z,22.70
2019-06-10T14:15:09.345Z,20.32
2019-06-10T14:20:15.475Z,19.15
2019-06-10T14:25:23.293Z,20.70
2019-06-10T14:30:29.011Z,23.32
2019-06-10T14:35:34.153Z,27.75
2019-06-10T14:40:39.298Z,28.32
2019-06-10T14:45:44.447Z,21.68
2019-06-10T15:46:43.047Z,24.47
2019-06-10T15:51:48.885Z,25.48
2019-06-10T15:56:56.567Z,23.20
2019-06-10T16:02:02.573Z,24.43
2019-06-10T16:07:09.093Z,30.62
2019-06-10T16:12:16.344Z,26.70
2019-06-10T16:17:21.162Z,23.62
2019-06-10T16:22:27.688Z,26.90
2019-06-10T16:27:46.285Z,28.73
2019-06-10T16:32:39.559Z,21.90
2019-06-10T16:37:44.719Z,24.18
2019-06-10T16:42:49.974Z,24.40
2019-06-10T16:47:55.700Z,23.12
2019-06-10T16:53:03.006Z,21.45
2019-06-10T16:58:08.527Z,20.25
2019-06-10T17:03:13.908Z,19.32
2019-06-10T17:08:20.059Z,19.85
2019-06-10T17:13:27.277Z,19.37
2019-06-10T17:18:33.915Z,21.75
2019-06-10T17:23:39.076Z,21.05
2019-06-10T17:28:44.628Z,19.98
2019-06-10T17:33:49.757Z,22.32
2019-06-10T17:38:54.941Z,23.57
2019-06-10T17:44:02.688Z,21.95
2019-06-10T17:49:08.953Z,18.40
2019-06-10T17:54:14.205Z,20.30
2019-06-10T17:59:22.477Z,19.75
2019-06-10T18:04:27.377Z,18.50
2019-06-10T18:09:35.419Z,20.30
2019-06-10T18:14:39.692Z,19.45
2019-06-10T18:19:44.848Z,23.52
2019-06-10T18:24:52.237Z,18.65
2019-06-10T18:29:58.489Z,20.37
2019-06-10T18:35:03.852Z,18.30
2019-06-10T18:40:09.431Z,23.35
2019-06-10T18:45:15.172Z,20.77
2019-06-10T18:50:22.110Z,19.23
2019-06-10T18:55:37.248Z,19.98
2019-06-10T19:00:56.970Z,17.92
2019-06-10T19:05:47.321Z,15.95
2019-06-10T19:10:53.563Z,17.80
2019-06-10T19:15:59.010Z,18.42
2019-06-10T19:21:07.705Z,17.48
2019-06-10T19:26:13.473Z,23.80
2019-06-10T19:31:18.392Z,22.42
2019-06-10T19:36:23.724Z,21.60
2019-06-10T19:41:28.816Z,15.60
2019-06-10T19:46:34.267Z,17.32
2019-06-10T19:51:44.852Z,19.85
2019-06-10T19:56:48.797Z,16.42
2019-06-10T20:01:54.292Z,15.90
2019-06-10T20:07:02.246Z,14.98
2019-06-10T20:12:07.161Z,17.32
2019-06-10T20:17:13.390Z,17.70
2019-06-10T20:22:19.483Z,17.15
2019-06-10T20:27:24.814Z,18.37
2019-06-10T20:32:29.944Z,18.57
2019-06-10T20:37:35.069Z,17.10
2019-06-10T20:42:40.287Z,18.12
2019-06-10T20:47:48.005Z,19.35
2019-06-10T20:52:52.559Z,18.62
2019-06-10T20:58:03.498Z,15.60
2019-06-10T21:03:05.015Z,16.67
2019-06-10T21:08:12.247Z,17.77
2019-06-10T21:13:17.044Z,16.48
2019-06-10T21:18:22.614Z,16.10
2019-06-10T21:23:27.937Z,16.93
2019-06-10T21:28:34.766Z,16.20
2019-06-10T21:33:43.791Z,17.80
2019-06-10T21:38:49.359Z,17.60
2019-06-10T21:43:59.103Z,17.32
2019-06-10T21:49:00.769Z,16.30
2019-06-10T21:54:07.384Z,18.12
2019-06-10T21:59:12.707Z,18.67
2019-06-10T22:04:19.238Z,17.40
2019-06-10T22:09:24.639Z,19.40
2019-06-10T22:14:30.124Z,18.73
2019-06-10T22:19:35.183Z,21.07
2019-06-10T22:24:42.327Z,21.05
2019-06-10T22:29:47.138Z,19.12
2019-06-10T22:34:54.164Z,19.52
2019-06-10T22:39:59.514Z,19.02
2019-06-10T22:45:05.255Z,20.32
2019-06-10T22:50:12.974Z,18.62
2019-06-10T22:55:18.022Z,20.75
2019-06-10T23:00:23.123Z,22.90
2019-06-10T23:05:28.634Z,22.40
2019-06-10T23:10:33.884Z,19.85
2019-06-10T23:15:42.656Z,21.10
2019-06-10T23:20:47.176Z,19.57
2019-06-10T23:25:52.279Z,20.85
2019-06-10T23:31:00.100Z,19.87
2019-06-10T23:36:05.157Z,20.37
2019-06-10T23:41:10.359Z,20.45
2019-06-10T23:46:15.818Z,21.93
2019-06-10T23:51:22.802Z,21.90
2019-06-10T23:56:28.031Z,21.10
